createdAt,value
2022-11-04T00:00:00.368Z,99.04
2022-11-04T00:01:00.370Z,98.84
2022-11-04T00:02:00.352Z,98.94
2022-11-04T00:03:00.279Z,99.35
2022-11-04T00:04:00.280Z,99.55
2022-11-04T00:05:00.300Z,99.86
2022-11-04T00:06:00.259Z,99.99
2022-11-04T00:07:00.249Z,99.99
2022-11-04T00:08:00.229Z,99.99
2022-11-04T00:09:00.219Z,99.99
2022-11-04T00:10:00.247Z,99.99
2022-11-04T00:11:00.199Z,99.99
2022-11-04T00:12:00.190Z,99.99
2022-11-04T00:13:00.176Z,99.99
2022-11-04T00:14:00.167Z,99.99
2022-11-04T00:15:00.156Z,99.99
2022-11-04T00:16:00.168Z,99.99
2022-11-04T00:17:00.137Z,99.99
2022-11-04T00:18:00.128Z,99.99
2022-11-04T00:19:00.127Z,99.99
2022-11-04T00:20:00.119Z,99.99
2022-11-04T00:21:00.117Z,99.99
2022-11-04T00:22:00.097Z,99.99
2022-11-04T00:23:00.100Z,99.99
2022-11-04T00:24:00.059Z,99.99
2022-11-04T00:25:00.039Z,99.99
2022-11-04T00:26:00.030Z,99.99
2022-11-04T00:27:00.049Z,99.99
2022-11-04T00:28:00.008Z,99.99
2022-11-04T00:28:59.990Z,99.99
2022-11-04T00:30:00.005Z,99.99
2022-11-04T00:30:59.980Z,99.99
2022-11-04T00:31:59.989Z,99.99
2022-11-04T00:32:59.951Z,99.99
2022-11-04T00:33:59.950Z,99.99
2022-11-04T00:34:59.929Z,99.99
2022-11-04T00:35:59.920Z,99.99
2022-11-04T00:36:59.948Z,99.99
2022-11-04T00:37:59.898Z,99.99
2022-11-04T00:38:59.891Z,99.99
2022-11-04T00:39:59.871Z,99.99
2022-11-04T00:40:59.866Z,99.99
2022-11-04T00:41:59.880Z,99.99
2022-11-04T00:42:59.839Z,99.99
2022-11-04T00:43:59.832Z,99.99
2022-11-04T00:44:59.830Z,99.99
2022-11-04T00:45:59.813Z,99.99
2022-11-04T00:46:59.813Z,99.99
2022-11-04T00:47:59.815Z,99.99
2022-11-04T00:48:59.777Z,99.99
2022-11-04T00:49:59.763Z,99.99
2022-11-04T00:50:59.800Z,99.99
2022-11-04T00:51:59.771Z,99.99
2022-11-04T00:52:59.733Z,99.99
2022-11-04T00:53:59.721Z,99.99
2022-11-04T00:54:59.705Z,99.99
2022-11-04T00:55:59.703Z,99.99
2022-11-04T00:56:59.712Z,99.99
2022-11-04T00:57:59.675Z,99.99
2022-11-04T00:58:59.662Z,99.99
2022-11-04T00:59:59.673Z,99.99
2022-11-04T01:00:59.697Z,99.99
2022-11-04T01:01:59.686Z,99.99
2022-11-04T01:02:59.613Z,99.99
2022-11-04T01:03:59.613Z,99.99
2022-11-04T01:04:59.601Z,99.99
2022-11-04T01:05:59.615Z,99.99
2022-11-04T01:06:59.578Z,99.99
2022-11-04T01:07:59.572Z,99.99
2022-11-04T01:08:59.547Z,99.99
2022-11-04T01:09:59.540Z,99.99
2022-11-04T01:10:59.545Z,99.99
2022-11-04T01:11:59.546Z,99.99
2022-11-04T01:12:59.515Z,99.99
2022-11-04T01:13:59.499Z,99.99
2022-11-04T01:14:59.487Z,99.99
2022-11-04T01:15:59.476Z,99.99
2022-11-04T01:16:59.463Z,99.99
2022-11-04T01:17:59.475Z,99.99
2022-11-04T01:18:59.433Z,99.99
2022-11-04T01:19:59.447Z,99.99
2022-11-04T01:20:59.414Z,99.99
2022-11-04T01:21:59.427Z,99.99
2022-11-04T01:22:59.393Z,99.99
2022-11-04T01:23:59.376Z,99.99
2022-11-04T01:24:59.365Z,99.99
2022-11-04T01:25:59.364Z,99.99
2022-11-04T01:26:59.354Z,99.99
2022-11-04T01:27:59.363Z,99.99
2022-11-04T01:28:59.347Z,99.99
2022-11-04T01:29:59.314Z,99.99
2022-11-04T01:30:59.309Z,99.99
2022-11-04T01:31:59.295Z,99.99
2022-11-04T01:32:59.275Z,99.99
2022-11-04T01:33:59.269Z,99.99
2022-11-04T01:34:59.277Z,99.99
2022-11-04T01:35:59.246Z,99.99
2022-11-04T01:36:59.237Z,99.99
2022-11-04T01:37:59.225Z,99.99
2022-11-04T01:38:59.207Z,99.99
2022-11-04T01:39:59.232Z,99.99
2022-11-04T01:40:59.186Z,99.99
2022-11-04T01:41:59.226Z,99.99
2022-11-04T01:42:59.165Z,99.99
2022-11-04T01:43:59.160Z,99.99
2022-11-04T01:44:59.149Z,99.99
2022-11-04T01:45:59.157Z,99.99
2022-11-04T01:46:59.124Z,99.99
2022-11-04T01:47:59.111Z,99.99
2022-11-04T01:48:59.097Z,99.99
2022-11-04T01:49:59.107Z,99.99
2022-11-04T01:50:59.078Z,99.99
2022-11-04T01:51:59.069Z,99.99
2022-11-04T01:52:59.050Z,99.99
2022-11-04T01:53:59.047Z,99.99
2022-11-04T01:54:59.028Z,99.99
2022-11-04T01:55:59.039Z,99.99
2022-11-04T01:56:59.009Z,99.99
2022-11-04T01:57:59.005Z,99.99
2022-11-04T01:58:59.008Z,99.99
2022-11-04T01:59:58.969Z,99.99
2022-11-04T02:00:58.994Z,99.99
2022-11-04T02:01:59.061Z,99.99
2022-11-04T02:02:58.943Z,99.99
2022-11-04T02:03:58.931Z,99.98
2022-11-04T02:04:58.931Z,99.98
2022-11-04T02:05:58.900Z,99.78
2022-11-04T02:06:58.918Z,99.68
2022-11-04T02:07:58.879Z,99.47
2022-11-04T02:08:58.892Z,99.57
2022-11-04T02:09:58.890Z,99.78
2022-11-04T02:10:58.852Z,99.68
2022-11-04T02:11:58.841Z,99.57
2022-11-04T02:12:58.847Z,99.57
2022-11-04T02:13:58.821Z,99.57
2022-11-04T02:14:58.824Z,99.68
2022-11-04T02:15:58.799Z,99.57
2022-11-04T02:16:58.787Z,99.57
2022-11-04T02:17:58.793Z,99.57
2022-11-04T02:18:58.752Z,99.68
2022-11-04T02:19:58.770Z,99.82
2022-11-04T02:20:58.731Z,99.82
2022-11-04T02:21:58.731Z,99.82
2022-11-04T02:22:58.714Z,99.93
2022-11-04T02:23:58.707Z,99.93
2022-11-04T02:24:58.714Z,99.72
2022-11-04T02:25:58.682Z,99.62
2022-11-04T02:26:58.681Z,99.62
2022-11-04T02:27:58.661Z,99.62
2022-11-04T02:28:58.642Z,99.62
2022-11-04T02:29:58.662Z,99.52
2022-11-04T02:30:58.624Z,99.62
2022-11-04T02:31:58.613Z,99.72
2022-11-04T02:32:58.603Z,99.72
2022-11-04T02:33:58.592Z,99.72
2022-11-04T02:34:58.593Z,99.62
2022-11-04T02:35:58.569Z,99.52
2022-11-04T02:36:58.578Z,99.41
2022-11-04T02:37:58.578Z,99.31
2022-11-04T02:38:58.533Z,99.21
2022-11-04T02:39:58.552Z,99.31
2022-11-04T02:40:58.512Z,99.21
2022-11-04T02:41:58.510Z,99.11
2022-11-04T02:42:58.483Z,99.01
2022-11-04T02:43:58.482Z,98.90
2022-11-04T02:44:58.483Z,98.90
2022-11-04T02:45:58.461Z,98.80
2022-11-04T02:46:58.452Z,98.29
2022-11-04T02:47:58.442Z,98.08
2022-11-04T02:48:58.420Z,98.19
2022-11-04T02:49:58.435Z,98.08
2022-11-04T02:50:58.394Z,98.19
2022-11-04T02:51:58.387Z,98.29
2022-11-04T02:52:58.378Z,98.08
2022-11-04T02:53:58.365Z,98.19
2022-11-04T02:54:58.361Z,98.19
2022-11-04T02:55:58.363Z,97.98
2022-11-04T02:56:58.348Z,97.98
2022-11-04T02:57:58.315Z,98.08
2022-11-04T02:58:58.313Z,98.29
2022-11-04T02:59:58.304Z,98.39
2022-11-04T03:00:58.380Z,98.60
2022-11-04T03:01:58.489Z,98.60
2022-11-04T03:02:58.273Z,98.60
2022-11-04T03:03:58.283Z,98.70
2022-11-04T03:04:58.243Z,98.60
2022-11-04T03:05:58.230Z,98.80
2022-11-04T03:06:58.315Z,99.01
2022-11-04T03:07:58.228Z,98.80
2022-11-04T03:08:58.204Z,98.70
2022-11-04T03:09:58.187Z,98.70
2022-11-04T03:10:58.176Z,98.70
2022-11-04T03:11:58.166Z,98.70
2022-11-04T03:12:58.175Z,98.60
2022-11-04T03:13:58.146Z,98.60
2022-11-04T03:14:58.165Z,98.60
2022-11-04T03:15:58.184Z,98.39
2022-11-04T03:16:58.140Z,98.39
2022-11-04T03:17:58.153Z,98.49
2022-11-04T03:18:58.084Z,98.08
2022-11-04T03:19:58.079Z,97.98
2022-11-04T03:20:58.073Z,97.78
2022-11-04T03:21:58.048Z,97.78
2022-11-04T03:22:58.065Z,97.78
2022-11-04T03:23:58.027Z,97.78
2022-11-04T03:24:58.026Z,97.88
2022-11-04T03:25:58.008Z,98.08
2022-11-04T03:26:58.008Z,98.29
2022-11-04T03:27:58.018Z,98.19
2022-11-04T03:28:57.976Z,98.19
2022-11-04T03:29:57.959Z,98.19
2022-11-04T03:30:57.957Z,98.08
2022-11-04T03:31:57.938Z,98.19
2022-11-04T03:32:57.930Z,98.29
2022-11-04T03:33:57.936Z,98.29
2022-11-04T03:34:57.910Z,98.19
2022-11-04T03:35:57.890Z,97.88
2022-11-04T03:36:57.897Z,97.78
2022-11-04T03:37:57.866Z,97.57
2022-11-04T03:38:57.894Z,97.47
2022-11-04T03:39:57.847Z,97.47
2022-11-04T03:40:57.847Z,97.67
2022-11-04T03:41:57.826Z,97.47
2022-11-04T03:42:57.822Z,97.16
2022-11-04T03:43:57.805Z,97.16
2022-11-04T03:44:57.815Z,97.16
2022-11-04T03:45:57.779Z,97.27
2022-11-04T03:46:57.785Z,97.37
2022-11-04T03:47:57.757Z,97.16
2022-11-04T03:48:57.748Z,96.96
2022-11-04T03:49:57.773Z,97.16
2022-11-04T03:50:57.738Z,97.02
2022-11-04T03:51:57.720Z,96.92
2022-11-04T03:52:57.709Z,96.92
2022-11-04T03:53:57.689Z,96.81
2022-11-04T03:54:57.708Z,97.02
2022-11-04T03:55:57.669Z,96.71
2022-11-04T03:56:57.672Z,96.71
2022-11-04T03:57:57.651Z,96.61
2022-11-04T03:58:57.632Z,96.51
2022-11-04T03:59:57.649Z,96.61
2022-11-04T04:00:57.654Z,96.81
2022-11-04T04:01:57.774Z,96.81
2022-11-04T04:02:57.592Z,96.81
2022-11-04T04:03:57.580Z,96.81
2022-11-04T04:04:57.600Z,96.81
2022-11-04T04:05:57.558Z,96.81
2022-11-04T04:06:57.565Z,96.51
2022-11-04T04:07:57.539Z,96.92
2022-11-04T04:08:57.522Z,96.81
2022-11-04T04:09:57.511Z,97.02
2022-11-04T04:10:57.519Z,96.71
2022-11-04T04:11:57.492Z,96.61
2022-11-04T04:12:57.488Z,96.61
2022-11-04T04:13:57.461Z,96.51
2022-11-04T04:14:57.460Z,96.71
2022-11-04T04:15:57.470Z,96.92
2022-11-04T04:16:57.503Z,96.71
2022-11-04T04:17:57.421Z,96.71
2022-11-04T04:18:58.699Z,96.30
2022-11-04T04:19:57.393Z,95.89
2022-11-04T04:20:57.395Z,95.69
2022-11-04T04:21:57.402Z,95.79
2022-11-04T04:22:57.371Z,95.89
2022-11-04T04:23:57.356Z,95.79
2022-11-04T04:24:57.348Z,95.79
2022-11-04T04:26:05.129Z,95.89
2022-11-04T04:26:57.354Z,96.10
2022-11-04T04:27:57.309Z,96.00
2022-11-04T04:28:57.304Z,95.79
2022-11-04T04:29:57.291Z,95.79
2022-11-04T04:31:00.255Z,95.79
2022-11-04T04:31:57.284Z,96.00
2022-11-04T04:32:57.258Z,95.89
2022-11-04T04:33:57.248Z,96.10
2022-11-04T04:34:57.241Z,96.00
2022-11-04T04:35:57.233Z,95.89
2022-11-04T04:36:57.253Z,96.10
2022-11-04T04:37:57.195Z,96.10
2022-11-04T04:38:57.193Z,96.00
2022-11-04T04:39:57.188Z,95.89
2022-11-04T04:41:57.182Z,95.79
2022-11-04T04:42:57.146Z,95.79
2022-11-04T04:43:57.134Z,95.89
2022-11-04T04:44:57.123Z,96.04
2022-11-04T04:45:57.120Z,96.04
2022-11-04T04:46:57.136Z,96.25
2022-11-04T04:47:57.087Z,96.45
2022-11-04T04:48:57.075Z,96.66
2022-11-04T04:49:57.062Z,96.66
2022-11-04T04:50:57.090Z,96.66
2022-11-04T04:51:57.037Z,96.75
2022-11-04T04:52:57.056Z,96.75
2022-11-04T04:53:57.015Z,96.96
2022-11-04T04:54:57.006Z,96.96
2022-11-04T04:55:56.995Z,97.06
2022-11-04T04:56:56.995Z,97.16
2022-11-04T04:57:56.968Z,97.31
2022-11-04T04:58:56.990Z,97.41
2022-11-04T04:59:56.988Z,97.37
2022-11-04T05:00:56.987Z,97.47
2022-11-04T05:01:56.992Z,97.37
2022-11-04T05:02:56.917Z,97.37
2022-11-04T05:03:56.905Z,97.37
2022-11-04T05:04:56.929Z,97.47
2022-11-04T05:05:58.768Z,97.37
2022-11-04T05:06:56.879Z,97.37
2022-11-04T05:07:56.901Z,97.47
2022-11-04T05:08:57.013Z,97.57
2022-11-04T05:09:56.927Z,97.67
2022-11-04T05:10:56.866Z,97.57
2022-11-04T05:11:56.815Z,97.27
2022-11-04T05:12:56.807Z,97.16
2022-11-04T05:13:56.807Z,97.16
2022-11-04T05:14:56.810Z,97.27
2022-11-04T05:15:56.783Z,97.27
2022-11-04T05:16:56.822Z,97.37
2022-11-04T05:17:57.027Z,96.96
2022-11-04T05:18:57.088Z,97.06
2022-11-04T05:19:57.048Z,97.16
2022-11-04T05:20:57.298Z,96.96
2022-11-04T05:21:57.092Z,96.86
2022-11-04T05:22:57.106Z,96.66
2022-11-04T05:23:57.104Z,96.66
2022-11-04T05:24:56.710Z,96.66
2022-11-04T05:25:56.729Z,96.75
2022-11-04T05:26:56.722Z,96.66
2022-11-04T05:27:56.759Z,96.75
2022-11-04T05:28:56.689Z,96.86
2022-11-04T05:29:56.630Z,96.86
2022-11-04T05:30:56.871Z,96.86
2022-11-04T05:31:56.801Z,97.06
2022-11-04T05:32:59.922Z,96.96
2022-11-04T05:33:57.631Z,96.86
2022-11-04T05:34:56.599Z,96.66
2022-11-04T05:35:56.542Z,96.66
2022-11-04T05:36:56.640Z,96.55
2022-11-04T05:37:56.567Z,96.55
2022-11-04T05:38:56.530Z,96.66
2022-11-04T05:39:56.511Z,96.55
2022-11-04T05:40:56.508Z,96.66
2022-11-04T05:41:56.515Z,96.75
2022-11-04T05:42:56.467Z,96.55
2022-11-04T05:43:56.458Z,96.45
2022-11-04T05:44:56.580Z,96.04
2022-11-04T05:45:56.601Z,96.04
2022-11-04T05:46:56.481Z,96.04
2022-11-04T05:47:56.413Z,95.94
2022-11-04T05:48:56.433Z,96.04
2022-11-04T05:49:56.381Z,96.14
2022-11-04T05:50:56.377Z,96.34
2022-11-04T05:51:56.469Z,96.34
2022-11-04T05:52:56.372Z,96.25
2022-11-04T05:53:56.491Z,96.25
2022-11-04T05:54:56.420Z,96.14
2022-11-04T05:55:56.401Z,96.14
2022-11-04T05:56:56.339Z,96.25
2022-11-04T05:57:56.342Z,96.04
2022-11-04T05:58:56.301Z,96.04
2022-11-04T05:59:56.300Z,96.04
2022-11-04T06:00:56.271Z,95.84
2022-11-04T06:01:56.549Z,95.84
2022-11-04T06:02:56.548Z,95.84
2022-11-04T06:03:56.273Z,95.53
2022-11-04T06:04:56.282Z,95.73
2022-11-04T06:05:56.237Z,95.84
2022-11-04T06:06:56.253Z,95.94
2022-11-04T06:07:56.196Z,96.04
2022-11-04T06:08:56.250Z,96.14
2022-11-04T06:09:56.235Z,96.04
2022-11-04T06:10:56.152Z,96.04
2022-11-04T06:11:56.142Z,96.04
2022-11-04T06:12:56.134Z,95.94
2022-11-04T06:13:56.152Z,95.94
2022-11-04T06:14:56.218Z,96.04
2022-11-04T06:15:56.094Z,96.04
2022-11-04T06:16:56.094Z,96.14
2022-11-04T06:17:56.101Z,96.14
2022-11-04T06:18:59.961Z,96.04
2022-11-04T06:19:57.146Z,96.14
2022-11-04T06:20:56.044Z,96.14
2022-11-04T06:21:56.032Z,96.34
2022-11-04T06:22:56.053Z,96.34
2022-11-04T06:23:56.005Z,96.45
2022-11-04T06:24:56.145Z,96.45
2022-11-04T06:25:55.986Z,96.45
2022-11-04T06:26:56.014Z,96.66
2022-11-04T06:27:55.996Z,96.55
2022-11-04T06:28:56.026Z,96.66
2022-11-04T06:29:55.973Z,96.75
2022-11-04T06:30:55.947Z,96.86
2022-11-04T06:31:56.035Z,96.66
2022-11-04T06:32:55.936Z,96.66
2022-11-04T06:33:55.970Z,96.75
2022-11-04T06:34:55.933Z,96.86
2022-11-04T06:35:55.873Z,97.06
2022-11-04T06:36:55.873Z,96.96
2022-11-04T06:37:55.855Z,97.11
2022-11-04T06:39:01.403Z,97.21
2022-11-04T06:39:56.826Z,97.31
2022-11-04T06:40:55.856Z,97.31
2022-11-04T06:41:57.938Z,97.21
2022-11-04T06:42:55.806Z,97.00
2022-11-04T06:43:55.786Z,97.11
2022-11-04T06:44:55.797Z,96.91
2022-11-04T06:45:55.825Z,96.80
2022-11-04T06:46:55.763Z,96.80
2022-11-04T06:47:55.757Z,96.86
2022-11-04T06:48:55.737Z,96.75
2022-11-04T06:49:55.895Z,96.75
2022-11-04T06:50:55.895Z,96.75
2022-11-04T06:51:55.778Z,96.75
2022-11-04T06:52:55.835Z,96.66
2022-11-04T06:53:55.786Z,96.55
2022-11-04T06:54:55.986Z,96.66
2022-11-04T06:55:56.591Z,96.75
2022-11-04T06:56:55.877Z,96.55
2022-11-04T06:57:55.678Z,96.66
2022-11-04T06:58:55.701Z,96.55
2022-11-04T06:59:55.683Z,96.55
2022-11-04T07:00:55.656Z,96.75
2022-11-04T07:01:55.833Z,96.86
2022-11-04T07:02:55.751Z,96.75
2022-11-04T07:03:55.588Z,96.66
2022-11-04T07:04:55.566Z,96.66
2022-11-04T07:05:55.638Z,96.75
2022-11-04T07:06:55.822Z,96.86
2022-11-04T07:07:55.537Z,96.96
2022-11-04T07:08:56.358Z,96.86
2022-11-04T07:09:55.491Z,96.75
2022-11-04T07:10:55.477Z,96.75
2022-11-04T07:11:55.548Z,96.86
2022-11-04T07:12:55.457Z,96.96
2022-11-04T07:13:55.478Z,97.16
2022-11-04T07:14:55.450Z,97.06
2022-11-04T07:15:55.607Z,96.75
2022-11-04T07:16:55.408Z,96.66
2022-11-04T07:17:55.406Z,96.66
2022-11-04T07:18:55.530Z,96.75
2022-11-04T07:19:55.402Z,96.75
2022-11-04T07:20:55.399Z,96.75
2022-11-04T07:21:55.369Z,96.96
2022-11-04T07:22:55.420Z,96.96
2022-11-04T07:23:55.630Z,97.06
2022-11-04T07:24:55.390Z,97.02
2022-11-04T07:25:55.340Z,96.81
2022-11-04T07:26:55.335Z,96.51
2022-11-04T07:27:58.039Z,96.51
2022-11-04T07:28:56.301Z,96.71
2022-11-04T07:29:55.281Z,96.81
2022-11-04T07:30:55.483Z,96.71
2022-11-04T07:31:55.268Z,96.61
2022-11-04T07:32:55.232Z,96.71
2022-11-04T07:33:55.289Z,96.51
2022-11-04T07:34:55.212Z,96.51
2022-11-04T07:35:58.309Z,96.30
2022-11-04T07:36:55.251Z,96.10
2022-11-04T07:37:55.273Z,96.20
2022-11-04T07:38:55.280Z,96.30
2022-11-04T07:39:55.190Z,96.30
2022-11-04T07:40:55.194Z,96.00
2022-11-04T07:41:59.254Z,96.00
2022-11-04T07:42:55.163Z,95.79
2022-11-04T07:43:55.116Z,96.00
2022-11-04T07:44:55.127Z,96.00
2022-11-04T07:45:55.093Z,96.00
2022-11-04T07:46:55.103Z,96.20
2022-11-04T07:47:55.092Z,96.41
2022-11-04T07:48:55.053Z,96.67
2022-11-04T07:49:55.123Z,96.26
2022-11-04T07:50:55.041Z,96.46
2022-11-04T07:51:55.035Z,96.05
2022-11-04T07:52:55.042Z,96.15
2022-11-04T07:53:55.039Z,95.85
2022-11-04T07:54:54.996Z,95.75
2022-11-04T07:55:54.985Z,95.85
2022-11-04T07:56:54.972Z,96.05
2022-11-04T07:57:54.966Z,95.85
2022-11-04T07:58:54.945Z,95.23
2022-11-04T07:59:54.965Z,94.93
2022-11-04T08:00:54.924Z,94.82
2022-11-04T08:01:55.066Z,95.03
2022-11-04T08:02:54.936Z,95.03
2022-11-04T08:03:54.912Z,94.73
2022-11-04T08:04:54.915Z,94.62
2022-11-04T08:05:54.875Z,94.93
2022-11-04T08:06:54.868Z,95.03
2022-11-04T08:07:54.856Z,94.82
2022-11-04T08:08:54.909Z,94.73
2022-11-04T08:09:54.855Z,94.62
2022-11-04T08:10:54.845Z,94.62
2022-11-04T08:11:54.815Z,94.82
2022-11-04T08:12:54.800Z,95.03
2022-11-04T08:13:54.792Z,95.13
2022-11-04T08:14:54.805Z,95.23
2022-11-04T08:15:54.767Z,95.44
2022-11-04T08:16:54.756Z,95.34
2022-11-04T08:17:54.746Z,94.73
2022-11-04T08:18:54.746Z,94.48
2022-11-04T08:19:54.755Z,94.17
2022-11-04T08:20:54.706Z,94.27
2022-11-04T08:21:54.758Z,93.96
2022-11-04T08:22:54.688Z,93.86
2022-11-04T08:23:54.686Z,93.35
2022-11-04T08:24:54.691Z,93.35
2022-11-04T08:25:54.669Z,93.35
2022-11-04T08:26:54.691Z,93.41
2022-11-04T08:28:00.568Z,93.21
2022-11-04T08:28:55.627Z,93.31
2022-11-04T08:29:54.627Z,93.00
2022-11-04T08:30:54.606Z,92.80
2022-11-04T08:31:54.599Z,92.90
2022-11-04T08:32:54.609Z,93.10
2022-11-04T08:33:54.574Z,92.59
2022-11-04T08:34:54.674Z,92.43
2022-11-04T08:35:54.550Z,92.64
2022-11-04T08:36:54.537Z,92.84
2022-11-04T08:37:54.558Z,93.05
2022-11-04T08:38:54.545Z,93.05
2022-11-04T08:39:54.511Z,93.05
2022-11-04T08:40:59.592Z,93.05
2022-11-04T08:41:57.254Z,92.84
2022-11-04T08:42:54.500Z,92.84
2022-11-04T08:43:54.466Z,92.84
2022-11-04T08:44:54.450Z,92.94
2022-11-04T08:45:54.454Z,93.05
2022-11-04T08:46:54.431Z,93.21
2022-11-04T08:47:54.421Z,92.69
2022-11-04T08:48:54.429Z,92.04
2022-11-04T08:49:54.390Z,91.28
2022-11-04T08:50:54.379Z,91.03
2022-11-04T08:51:54.408Z,90.32
2022-11-04T08:52:54.375Z,89.61
2022-11-04T08:53:54.962Z,89.16
2022-11-04T08:54:57.299Z,88.51
2022-11-04T08:55:54.332Z,87.85
2022-11-04T08:56:54.322Z,86.59
2022-11-04T08:57:54.331Z,86.25
2022-11-04T08:58:54.302Z,85.03
2022-11-04T08:59:54.292Z,85.06
2022-11-04T09:00:54.280Z,85.13
2022-11-04T09:01:54.308Z,83.97
2022-11-04T09:02:54.282Z,83.32
2022-11-04T09:03:54.274Z,82.94
2022-11-04T09:04:54.244Z,82.19
2022-11-04T09:05:54.230Z,80.73
2022-11-04T09:06:54.215Z,79.72
2022-11-04T09:07:54.204Z,79.47
2022-11-04T09:08:54.212Z,77.95
2022-11-04T09:09:54.186Z,78.56
2022-11-04T09:10:54.166Z,78.16
2022-11-04T09:11:54.165Z,78.40
2022-11-04T09:12:54.172Z,77.95
2022-11-04T09:13:54.152Z,78.26
2022-11-04T09:14:54.148Z,78.09
2022-11-04T09:15:54.114Z,79.00
2022-11-04T09:16:54.139Z,79.13
2022-11-04T09:17:54.092Z,77.58
2022-11-04T09:18:54.104Z,76.70
2022-11-04T09:19:54.074Z,76.70
2022-11-04T09:20:54.056Z,76.80
2022-11-04T09:21:54.056Z,76.56
2022-11-04T09:22:54.037Z,76.63
2022-11-04T09:23:54.034Z,76.12
2022-11-04T09:24:54.034Z,76.39
2022-11-04T09:25:54.004Z,75.55
2022-11-04T09:26:53.995Z,73.76
2022-11-04T09:27:53.987Z,73.63
2022-11-04T09:28:53.974Z,74.10
2022-11-04T09:29:53.987Z,74.95
2022-11-04T09:30:53.953Z,75.25
2022-11-04T09:31:53.945Z,75.11
2022-11-04T09:32:53.925Z,74.40
2022-11-04T09:33:53.924Z,74.30
2022-11-04T09:34:53.933Z,74.13
2022-11-04T09:35:53.898Z,73.49
2022-11-04T09:36:53.879Z,72.95
2022-11-04T09:37:53.877Z,72.64
2022-11-04T09:38:53.863Z,71.70
2022-11-04T09:39:54.181Z,70.83
2022-11-04T09:40:53.856Z,70.42
2022-11-04T09:41:53.827Z,71.20
2022-11-04T09:42:53.818Z,71.73
2022-11-04T09:43:53.821Z,71.10
2022-11-04T09:45:20.004Z,70.89
2022-11-04T09:45:54.805Z,71.03
2022-11-04T09:46:53.771Z,71.73
2022-11-04T09:47:53.766Z,71.10
2022-11-04T09:48:53.761Z,71.23
2022-11-04T09:49:53.746Z,71.84
2022-11-04T09:50:53.749Z,72.17
2022-11-04T09:51:55.240Z,71.60
2022-11-04T09:52:53.706Z,71.47
2022-11-04T09:53:53.701Z,72.72
2022-11-04T09:54:53.707Z,73.39
2022-11-04T09:55:53.706Z,75.96
2022-11-04T09:56:53.687Z,73.76
2022-11-04T09:57:53.718Z,75.08
2022-11-04T09:58:53.642Z,75.58
2022-11-04T09:59:53.638Z,74.40
2022-11-04T10:00:53.684Z,75.99
2022-11-04T10:01:53.687Z,76.40
2022-11-04T10:02:53.593Z,76.67
2022-11-04T10:03:53.591Z,75.28
2022-11-04T10:04:53.582Z,73.25
2022-11-04T10:05:53.593Z,72.34
2022-11-04T10:06:53.554Z,71.40
2022-11-04T10:07:53.541Z,73.36
2022-11-04T10:08:53.542Z,75.18
2022-11-04T10:09:53.524Z,73.19
2022-11-04T10:10:53.541Z,73.69
2022-11-04T10:11:53.504Z,75.99
2022-11-04T10:12:53.485Z,77.14
2022-11-04T10:13:53.487Z,78.03
2022-11-04T10:14:53.468Z,76.97
2022-11-04T10:15:53.477Z,73.66
2022-11-04T10:16:53.446Z,74.19
2022-11-04T10:17:53.434Z,72.78
2022-11-04T10:18:53.424Z,71.50
2022-11-04T10:19:53.414Z,69.38
2022-11-04T10:20:53.453Z,68.01
2022-11-04T10:21:53.405Z,66.63
2022-11-04T10:22:53.385Z,66.63
2022-11-04T10:23:53.375Z,64.49
2022-11-04T10:24:53.373Z,64.95
2022-11-04T10:25:53.347Z,67.80
2022-11-04T10:26:57.616Z,69.11
2022-11-04T10:27:54.325Z,69.21
2022-11-04T10:28:53.324Z,69.65
2022-11-04T10:29:53.297Z,71.80
2022-11-04T10:30:53.299Z,73.69
2022-11-04T10:31:53.322Z,73.56
2022-11-04T10:32:53.282Z,71.10
2022-11-04T10:33:53.259Z,68.71
2022-11-04T10:34:53.244Z,68.21
2022-11-04T10:35:53.238Z,65.73
2022-11-04T10:36:53.274Z,65.70
2022-11-04T10:37:53.217Z,64.60
2022-11-04T10:38:53.200Z,63.33
2022-11-04T10:39:53.198Z,61.99
2022-11-04T10:40:53.182Z,62.19
2022-11-04T10:41:53.183Z,61.99
2022-11-04T10:42:53.180Z,63.02
2022-11-04T10:43:53.150Z,62.89
2022-11-04T10:44:53.129Z,62.22
2022-11-04T10:45:53.128Z,63.85
2022-11-04T10:46:53.111Z,67.19
2022-11-04T10:47:53.127Z,67.93
2022-11-04T10:48:53.101Z,69.51
2022-11-04T10:50:21.996Z,70.83
2022-11-04T10:50:54.069Z,68.48
2022-11-04T10:51:53.060Z,68.44
2022-11-04T10:52:53.102Z,69.18
2022-11-04T10:53:53.122Z,70.36
2022-11-04T10:54:53.031Z,71.84
2022-11-04T10:55:53.022Z,70.62
2022-11-04T10:56:53.061Z,68.41
2022-11-04T10:57:52.999Z,67.23
2022-11-04T10:58:53.001Z,66.70
2022-11-04T10:59:52.973Z,67.36
2022-11-04T11:00:53.011Z,69.04
2022-11-04T11:01:53.109Z,68.71
2022-11-04T11:02:52.934Z,68.95
2022-11-04T11:03:52.999Z,71.40
2022-11-04T11:04:52.915Z,69.71
2022-11-04T11:05:52.917Z,69.31
2022-11-04T11:06:52.894Z,71.23
2022-11-04T11:07:52.894Z,72.41
2022-11-04T11:08:52.901Z,73.09
2022-11-04T11:09:54.351Z,69.98
2022-11-04T11:10:52.862Z,66.96
2022-11-04T11:11:52.847Z,65.85
2022-11-04T11:12:52.839Z,65.32
2022-11-04T11:13:52.853Z,64.52
2022-11-04T11:14:52.806Z,61.54
2022-11-04T11:15:52.805Z,61.85
2022-11-04T11:16:52.797Z,61.46
2022-11-04T11:17:52.778Z,59.52
2022-11-04T11:18:52.798Z,58.36
2022-11-04T11:19:52.756Z,58.11
2022-11-04T11:20:52.786Z,58.66
2022-11-04T11:21:52.741Z,57.80
2022-11-04T11:22:52.732Z,56.72
2022-11-04T11:23:52.710Z,55.09
2022-11-04T11:24:52.748Z,55.55
2022-11-04T11:25:52.709Z,55.09
2022-11-04T11:26:52.687Z,55.32
2022-11-04T11:28:00.468Z,55.94
2022-11-04T11:28:58.429Z,56.05
2022-11-04T11:29:53.649Z,55.80
2022-11-04T11:30:52.659Z,57.08
2022-11-04T11:31:52.622Z,57.68
2022-11-04T11:32:52.621Z,58.94
2022-11-04T11:33:52.632Z,58.81
2022-11-04T11:34:52.591Z,58.53
2022-11-04T11:35:52.600Z,56.32
2022-11-04T11:36:52.573Z,55.17
2022-11-04T11:37:52.573Z,53.97
2022-11-04T11:38:52.551Z,53.81
2022-11-04T11:39:52.534Z,53.04
2022-11-04T11:41:22.863Z,54.32
2022-11-04T11:41:53.727Z,54.32
2022-11-04T11:42:52.512Z,53.87
2022-11-04T11:43:52.505Z,53.77
2022-11-04T11:44:52.584Z,54.57
2022-11-04T11:45:52.486Z,55.17
2022-11-04T11:46:52.505Z,54.80
2022-11-04T11:47:52.449Z,56.38
2022-11-04T11:48:52.474Z,56.35
2022-11-04T11:49:52.429Z,56.33
2022-11-04T11:50:52.471Z,55.50
2022-11-04T11:51:52.407Z,55.90
2022-11-04T11:52:52.405Z,56.96
2022-11-04T11:53:52.389Z,58.83
2022-11-04T11:54:52.380Z,61.99
2022-11-04T11:55:52.409Z,63.37
2022-11-04T11:57:12.601Z,62.30
2022-11-04T12:00:59.115Z,62.34
2022-11-04T12:01:53.394Z,60.21
2022-11-04T12:02:52.471Z,59.05
2022-11-04T12:09:53.210Z,56.20
2022-11-04T12:10:52.647Z,55.37
2022-11-04T12:11:52.207Z,55.30
2022-11-04T12:12:52.200Z,54.82
2022-11-04T12:13:52.191Z,56.63
2022-11-04T12:14:52.160Z,57.41
2022-11-04T12:15:52.141Z,57.26
2022-11-04T12:16:52.142Z,57.13
2022-11-04T12:17:52.142Z,57.18
2022-11-04T12:18:52.113Z,57.81
2022-11-04T12:19:52.104Z,60.21
2022-11-04T12:20:52.095Z,62.30
2022-11-04T12:21:52.084Z,63.65
2022-11-04T12:22:52.073Z,62.55
2022-11-04T12:23:52.092Z,60.02
2022-11-04T12:24:52.054Z,59.29
2022-11-04T12:25:52.044Z,58.43
2022-11-04T12:26:52.034Z,60.00
2022-11-04T12:27:52.010Z,62.77
2022-11-04T12:28:52.024Z,64.72
2022-11-04T12:29:51.987Z,65.25
2022-11-04T12:30:52.040Z,66.72
2022-11-04T12:31:51.966Z,67.56
2022-11-04T12:32:51.958Z,68.43
2022-11-04T12:33:51.975Z,69.48
2022-11-04T12:34:51.941Z,70.96
2022-11-04T12:35:51.926Z,71.80
2022-11-04T12:36:51.915Z,72.24
2022-11-04T12:37:52.001Z,72.78
2022-11-04T12:38:51.905Z,74.00
2022-11-04T12:39:51.908Z,71.50
2022-11-04T12:41:18.676Z,72.65
2022-11-04T12:42:19.553Z,73.19
2022-11-04T12:42:52.850Z,73.53
2022-11-04T12:43:51.840Z,73.16
2022-11-04T12:44:51.848Z,68.71
2022-11-04T12:45:51.839Z,66.08
2022-11-04T12:46:51.829Z,63.34
2022-11-04T12:47:51.797Z,62.61
2022-11-04T12:48:56.854Z,60.57
2022-11-04T12:49:52.773Z,60.51
2022-11-04T12:50:51.961Z,58.01
2022-11-04T12:51:51.753Z,57.34
2022-11-04T12:52:51.740Z,59.83
2022-11-04T12:53:51.731Z,58.22
2022-11-04T12:54:51.721Z,56.70
2022-11-04T12:55:51.737Z,56.63
2022-11-04T12:56:51.742Z,60.19
2022-11-04T12:57:51.705Z,62.73
2022-11-04T12:58:51.694Z,65.04
2022-11-04T12:59:51.665Z,66.82
2022-11-04T13:00:51.723Z,65.48
2022-11-04T13:01:51.723Z,63.85